首页
METAR-TAF:

METAR-TAF

机场 :

Pickle Lake, 安大略省, 加拿大

纬度: 51-27N, 经度: 090-12W, 海拔: 386米

当前天气观测

该预报发布于25小时和8分钟前的21:00 UTC
风速17节,风向,有时为26节阵风
温度 26°C
湿度 42%
气压 1000 hPa
能見度: 14.5公里
散云层高于12000英尺
多云层高于14000英尺

METAR: CYPL 242100Z AUTO 19017G26KT 9SM SCT120 BKN140 26/12 A2953 RMK SLP003 DENSITY ALT 3400FT

时间: 17:08 (22:08 UTC)

预报

该预报发布于26小时和27分钟前的19:41 UTC
预报有效从24日的 20点(UTC)到 25日的 08点(UTC)
风速18节,风向南转西南,有时为30节阵风
能見度: 10公里
少量云层高于14000英尺
短暂存在
从 24日的 20点(UTC)到 24日的 23点(UTC)
能見度: 10公里
少量云层高于4000英尺
多云层高于14000英尺
小阵雨
从 24日的 2300点(UTC)
风速12节,风向南转西南,有时为32节阵风
能見度: 10公里
多云层高于4000英尺
多云层高于8000英尺
小阵雨
短暂存在
从 24日的 23点(UTC)到 25日的 04点(UTC)
能見度: 8.0公里
多云层高于4000英尺
阵雨, 轻雾
几率 40%
从 24日的 23点(UTC)到 25日的 04点(UTC)
风速20节,风向西南,有时为40节阵风
能見度: 1.6公里
多云层高于2000英尺
阴天层高于4000英尺, 积雨云.
雷暴, 大雨, 冰雹, 轻雾
从 25日的 0400点(UTC)
风速12节,风向西,有时为22节阵风
能見度: 10公里
天空无云

TAF: CYPL 241941Z 2420/2508 21018G30KT P6SM FEW140 TEMPO 2420/2423 P6SM -SHRA FEW040 BKN140 FM242300 21012G32KT P6SM -SHRA BKN040 BKN080 TEMPO 2423/2504 5SM SHRA BR BKN040 PROB40 2423/2504 22020G40KT 1SM +TSRAGR BR BKN020 OVC040CB FM250400 26012G22KT P6SM SKC RMK FCST BASED ON AUTO OBS. NXT FCST BY 250200Z

超过4000个机场的气象观测和天气预报(METAR&TAF报告)。

可查询的气象台以黄色和红色小点在地图上表示。

将鼠标移到小点上方,可查看气象台名称。

然后点击查看天气观测和预报。

如需切换地图:点击带黑十字的绿色按钮放大地图;点击带横线的绿色按钮缩小地图;或者点击绿色箭头查看邻近地区的地图。


METAR-TAF: